Time;durP1;ratioP1;P1;durP2;ratioP2;P2;SDS_P1;SDS_P2;PMS_P1;PMS_P2;Temp;Humidity;BMP_temperature;BMP_pressure;BME280_temperature;BME280_humidity;BME280_pressure;Samples;Min_cycle;Max_cycle;Signal;HPM_P1;HPM_P2
2023/08/01 00:00:09;;;;;;;5.55;1.40;;;;;;;;;;5110932;28;20044;-70
2023/08/01 00:02:35;;;;;;;3.13;1.33;;;;;;;;;;5111210;28;20048;-75
2023/08/01 00:05:02;;;;;;;3.15;1.50;;;;;;;;;;5111009;28;20498;-70
2023/08/01 00:07:29;;;;;;;6.35;1.60;;;;;;;;;;5111011;28;20046;-70
2023/08/01 00:09:56;;;;;;;4.32;1.30;;;;;;;;;;5110667;28;20059;-70
2023/08/01 00:12:24;;;;;;;2.58;1.30;;;;;;;;;;5111263;28;20502;-72
2023/08/01 00:14:50;;;;;;;3.95;1.42;;;;;;;;;;5110996;28;20043;-70
2023/08/01 00:17:17;;;;;;;2.50;1.17;;;;;;;;;;5110876;28;20517;-71
2023/08/01 00:19:44;;;;;;;3.03;1.35;;;;;;;;;;5110719;28;20082;-73
2023/08/01 00:22:10;;;;;;;4.72;1.60;;;;;;;;;;5110505;28;20048;-69
2023/08/01 00:24:37;;;;;;;3.63;1.50;;;;;;;;;;5110424;28;20138;-69
2023/08/01 00:27:04;;;;;;;4.43;1.70;;;;;;;;;;5110888;28;20657;-71
2023/08/01 00:29:31;;;;;;;2.97;1.65;;;;;;;;;;5109753;28;20518;-71
2023/08/01 00:31:57;;;;;;;3.58;1.67;;;;;;;;;;5110449;28;20058;-71
2023/08/01 00:34:24;;;;;;;3.10;1.67;;;;;;;;;;5110777;28;20116;-69
2023/08/01 00:36:51;;;;;;;3.47;1.92;;;;;;;;;;5110335;28;20043;-69
2023/08/01 00:39:17;;;;;;;2.80;1.58;;;;;;;;;;5110431;28;20122;-71
2023/08/01 00:41:44;;;;;;;2.53;1.35;;;;;;;;;;5110436;28;20055;-71
2023/08/01 00:44:11;;;;;;;3.95;1.60;;;;;;;;;;5110419;28;20059;-70
2023/08/01 00:46:37;;;;;;;2.92;1.48;;;;;;;;;;5110411;28;20044;-73
2023/08/01 00:49:04;;;;;;;4.05;1.55;;;;;;;;;;5110576;28;20062;-70
2023/08/01 00:51:32;;;;;;;4.25;1.80;;;;;;;;;;5110180;28;20047;-70
2023/08/01 00:54:00;;;;;;;3.90;1.70;;;;;;;;;;5110301;28;20628;-73
2023/08/01 00:56:27;;;;;;;2.58;1.60;;;;;;;;;;5110159;28;20040;-72
2023/08/01 00:58:53;;;;;;;2.63;1.50;;;;;;;;;;5110071;28;20043;-73
2023/08/01 01:01:20;;;;;;;4.78;1.80;;;;;;;;;;5109863;28;20059;-74
2023/08/01 01:03:48;;;;;;;2.65;1.48;;;;;;;;;;5109940;28;20131;-71
2023/08/01 01:06:32;;;;;;;3.85;1.75;;;;;;;;;;5109986;28;20048;-70
2023/08/01 01:08:59;;;;;;;2.75;1.42;;;;;;;;;;5109772;28;20547;-71
2023/08/01 01:11:26;;;;;;;2.40;1.42;;;;;;;;;;5109912;28;20101;-70
2023/08/01 01:13:53;;;;;;;2.95;1.48;;;;;;;;;;5110282;28;20055;-71
2023/08/01 01:16:20;;;;;;;3.35;1.70;;;;;;;;;;5109920;28;20039;-72
2023/08/01 01:18:47;;;;;;;4.88;1.80;;;;;;;;;;5109965;28;20052;-70
2023/08/01 01:21:14;;;;;;;3.60;1.73;;;;;;;;;;5109545;28;20043;-69
2023/08/01 01:23:41;;;;;;;4.95;1.83;;;;;;;;;;5109940;28;20047;-70
2023/08/01 01:26:09;;;;;;;5.68;2.13;;;;;;;;;;5110000;28;20047;-76
2023/08/01 01:28:37;;;;;;;5.68;2.20;;;;;;;;;;5109976;28;20526;-72
2023/08/01 01:31:03;;;;;;;3.92;2.17;;;;;;;;;;5109525;28;20047;-70
2023/08/01 01:33:30;;;;;;;4.90;2.35;;;;;;;;;;5110251;28;20040;-71
2023/08/01 01:35:57;;;;;;;5.82;2.45;;;;;;;;;;5109902;28;20044;-71
2023/08/01 01:38:24;;;;;;;4.72;2.38;;;;;;;;;;5109748;28;20043;-72
2023/08/01 01:40:50;;;;;;;6.82;2.67;;;;;;;;;;5111960;28;20062;-73
2023/08/01 01:43:17;;;;;;;6.95;2.53;;;;;;;;;;5113780;28;20043;-70
2023/08/01 01:45:44;;;;;;;6.30;2.58;;;;;;;;;;5113581;28;20067;-69
2023/08/01 01:48:10;;;;;;;6.93;2.42;;;;;;;;;;5113714;28;20048;-70
2023/08/01 01:50:37;;;;;;;5.78;2.63;;;;;;;;;;5113992;28;20044;-69
2023/08/01 01:53:04;;;;;;;6.53;3.00;;;;;;;;;;5113307;28;20051;-71
2023/08/01 01:55:30;;;;;;;6.82;3.20;;;;;;;;;;5113813;28;20063;-71
2023/08/01 01:57:57;;;;;;;5.78;2.65;;;;;;;;;;5113453;28;20047;-72
2023/08/01 02:00:26;;;;;;;4.22;2.83;;;;;;;;;;5113469;28;20055;-71
2023/08/01 02:02:53;;;;;;;7.20;3.25;;;;;;;;;;5113045;28;20051;-70
2023/08/01 02:05:20;;;;;;;5.95;2.97;;;;;;;;;;5113494;28;20123;-71
2023/08/01 02:07:46;;;;;;;5.50;3.00;;;;;;;;;;5112775;28;20040;-75
2023/08/01 02:10:13;;;;;;;5.35;2.70;;;;;;;;;;5113539;28;20406;-76
2023/08/01 02:12:40;;;;;;;5.95;2.40;;;;;;;;;;5113253;28;20541;-77
2023/08/01 02:15:07;;;;;;;4.32;2.70;;;;;;;;;;5113302;28;20048;-70
2023/08/01 02:17:33;;;;;;;5.47;2.03;;;;;;;;;;5112980;28;20048;-69
2023/08/01 02:20:00;;;;;;;3.33;2.08;;;;;;;;;;5113170;28;20071;-74
2023/08/01 02:22:27;;;;;;;4.40;2.22;;;;;;;;;;5112364;28;20052;-69
2023/08/01 02:24:53;;;;;;;6.57;2.35;;;;;;;;;;5113053;28;20054;-70
2023/08/01 02:27:20;;;;;;;3.40;1.90;;;;;;;;;;5112575;28;20514;-70
2023/08/01 02:29:47;;;;;;;6.97;2.20;;;;;;;;;;5112753;28;20047;-69
2023/08/01 02:32:13;;;;;;;5.30;2.10;;;;;;;;;;5112498;28;20145;-73
2023/08/01 02:34:40;;;;;;;4.20;2.38;;;;;;;;;;5112946;28;20066;-70
2023/08/01 02:37:07;;;;;;;6.85;2.20;;;;;;;;;;5112629;28;20116;-69
2023/08/01 02:39:35;;;;;;;2.65;1.90;;;;;;;;;;5094214;28;20043;-69
2023/08/01 02:42:02;;;;;;;3.03;2.00;;;;;;;;;;5112469;28;20047;-69
2023/08/01 02:44:29;;;;;;;3.25;1.77;;;;;;;;;;5112502;28;20637;-69
2023/08/01 02:46:56;;;;;;;3.65;2.00;;;;;;;;;;5112299;28;20125;-73
2023/08/01 02:49:22;;;;;;;3.92;2.20;;;;;;;;;;5112720;28;20047;-71
2023/08/01 02:51:49;;;;;;;5.07;2.13;;;;;;;;;;5111275;28;20131;-70
2023/08/01 02:54:16;;;;;;;7.05;2.40;;;;;;;;;;5112309;28;20047;-70
2023/08/01 02:56:42;;;;;;;4.50;2.17;;;;;;;;;;5112752;28;20051;-70
2023/08/01 02:59:09;;;;;;;4.28;2.17;;;;;;;;;;5112213;28;20054;-70
2023/08/01 03:01:38;;;;;;;3.58;1.92;;;;;;;;;;5111879;28;20135;-73
2023/08/01 03:04:06;;;;;;;5.57;2.08;;;;;;;;;;5111893;28;20126;-69
2023/08/01 03:06:33;;;;;;;3.75;2.00;;;;;;;;;;5112226;28;20097;-69
2023/08/01 03:09:00;;;;;;;3.58;1.88;;;;;;;;;;5111869;28;20441;-69
2023/08/01 03:11:26;;;;;;;4.60;2.17;;;;;;;;;;5112399;28;20058;-69
2023/08/01 03:13:53;;;;;;;5.22;2.00;;;;;;;;;;5111850;28;20047;-72
2023/08/01 03:16:20;;;;;;;4.18;2.10;;;;;;;;;;5111912;28;20043;-72
2023/08/01 03:18:47;;;;;;;4.68;1.98;;;;;;;;;;5111645;28;20093;-69
2023/08/01 03:21:13;;;;;;;4.50;1.88;;;;;;;;;;5112010;28;20047;-71
2023/08/01 03:23:40;;;;;;;6.35;2.20;;;;;;;;;;5111256;28;20054;-70
2023/08/01 03:26:07;;;;;;;2.80;1.92;;;;;;;;;;5112148;28;20039;-70
2023/08/01 03:28:33;;;;;;;5.60;2.38;;;;;;;;;;5111424;28;20052;-70
2023/08/01 03:31:00;;;;;;;3.20;2.03;;;;;;;;;;5111726;28;20043;-74
2023/08/01 03:33:27;;;;;;;4.15;2.25;;;;;;;;;;5111762;28;20511;-69
2023/08/01 03:35:54;;;;;;;4.45;2.20;;;;;;;;;;5111584;28;20060;-70
2023/08/01 03:38:20;;;;;;;6.97;2.40;;;;;;;;;;5111075;28;20039;-70
2023/08/01 03:40:47;;;;;;;3.42;2.20;;;;;;;;;;5111221;28;20058;-70
2023/08/01 03:43:14;;;;;;;5.13;2.58;;;;;;;;;;5111240;28;20052;-69
2023/08/01 03:45:40;;;;;;;4.43;2.50;;;;;;;;;;5111619;28;20046;-70
2023/08/01 03:48:07;;;;;;;3.78;2.20;;;;;;;;;;5111315;28;20044;-70
2023/08/01 03:50:34;;;;;;;6.38;2.72;;;;;;;;;;5111374;28;20044;-72
2023/08/01 03:53:00;;;;;;;4.20;2.30;;;;;;;;;;5110886;28;20479;-74
2023/08/01 03:55:27;;;;;;;3.97;2.20;;;;;;;;;;5111107;28;20047;-69
2023/08/01 03:57:54;;;;;;;5.13;2.40;;;;;;;;;;5111012;28;20048;-70
2023/08/01 04:00:20;;;;;;;4.70;2.33;;;;;;;;;;5110904;28;20039;-74
2023/08/01 04:02:47;;;;;;;4.95;2.45;;;;;;;;;;5110320;28;20522;-70
2023/08/01 04:05:15;;;;;;;3.65;2.10;;;;;;;;;;5111311;28;20043;-69
2023/08/01 04:07:42;;;;;;;3.50;2.08;;;;;;;;;;5111163;28;20131;-71
2023/08/01 04:10:09;;;;;;;6.03;2.20;;;;;;;;;;5110729;28;20043;-70
2023/08/01 04:12:36;;;;;;;3.35;1.85;;;;;;;;;;5111098;28;20495;-70
2023/08/01 04:15:03;;;;;;;5.10;2.10;;;;;;;;;;5110834;28;20047;-69
2023/08/01 04:17:29;;;;;;;3.38;2.22;;;;;;;;;;5110835;28;20047;-71
2023/08/01 04:19:56;;;;;;;5.38;2.17;;;;;;;;;;5110519;28;20048;-70
2023/08/01 04:22:23;;;;;;;3.78;2.15;;;;;;;;;;5110673;28;20077;-72
2023/08/01 04:24:50;;;;;;;3.20;2.20;;;;;;;;;;5110943;28;20039;-71
2023/08/01 04:27:17;;;;;;;4.68;2.03;;;;;;;;;;5111024;28;20061;-70
2023/08/01 04:29:44;;;;;;;4.28;2.05;;;;;;;;;;5110451;28;20170;-70
2023/08/01 04:32:14;;;;;;;4.63;2.40;;;;;;;;;;5110508;28;20086;-69
2023/08/01 04:34:41;;;;;;;3.85;2.10;;;;;;;;;;5110190;28;20484;-71
2023/08/01 04:37:08;;;;;;;4.15;2.10;;;;;;;;;;5110238;28;20044;-70
2023/08/01 04:39:34;;;;;;;5.13;2.30;;;;;;;;;;5109683;28;20054;-71
2023/08/01 04:42:01;;;;;;;3.83;2.10;;;;;;;;;;5110412;28;20044;-69
2023/08/01 04:44:29;;;;;;;3.40;2.10;;;;;;;;;;5110169;28;20130;-71
2023/08/01 04:46:56;;;;;;;6.53;2.08;;;;;;;;;;5110632;28;20118;-71
2023/08/01 04:49:24;;;;;;;2.80;2.03;;;;;;;;;;5109997;28;20447;-73
2023/08/01 04:51:51;;;;;;;4.10;2.30;;;;;;;;;;5110328;28;20101;-74
2023/08/01 04:54:18;;;;;;;5.85;2.20;;;;;;;;;;5109830;28;20061;-76
2023/08/01 04:56:44;;;;;;;5.50;2.05;;;;;;;;;;5110365;28;20043;-71
2023/08/01 04:59:11;;;;;;;4.65;1.88;;;;;;;;;;5109834;28;20051;-70
2023/08/01 05:01:38;;;;;;;3.45;1.70;;;;;;;;;;5110325;28;20046;-69
2023/08/01 05:04:04;;;;;;;4.38;2.13;;;;;;;;;;5110027;28;20044;-69
2023/08/01 05:06:31;;;;;;;3.88;2.20;;;;;;;;;;5110437;28;20063;-69
2023/08/01 05:08:58;;;;;;;6.93;2.10;;;;;;;;;;5110050;28;20050;-69
2023/08/01 05:11:25;;;;;;;4.18;2.10;;;;;;;;;;5110025;28;20062;-70
2023/08/01 05:13:51;;;;;;;3.53;2.15;;;;;;;;;;5109634;28;20051;-69
2023/08/01 05:16:18;;;;;;;7.20;2.30;;;;;;;;;;5112989;28;20044;-73
2023/08/01 05:18:45;;;;;;;3.75;2.03;;;;;;;;;;5113905;28;20488;-69
2023/08/01 05:21:12;;;;;;;3.55;2.00;;;;;;;;;;5113985;28;20089;-69
2023/08/01 05:23:38;;;;;;;6.05;2.10;;;;;;;;;;5114387;28;20063;-69
2023/08/01 05:26:05;;;;;;;4.28;2.00;;;;;;;;;;5114599;28;20062;-69
2023/08/01 05:28:32;;;;;;;4.13;2.00;;;;;;;;;;5113901;28;20047;-72
2023/08/01 05:30:58;;;;;;;3.63;2.20;;;;;;;;;;5113752;28;20534;-70
2023/08/01 05:33:25;;;;;;;3.92;2.08;;;;;;;;;;5113820;28;20507;-70
2023/08/01 05:35:52;;;;;;;4.68;2.08;;;;;;;;;;5113576;28;20048;-74
2023/08/01 05:38:18;;;;;;;4.05;2.20;;;;;;;;;;5113494;28;20040;-69
2023/08/01 05:40:45;;;;;;;2.72;1.83;;;;;;;;;;5113737;28;20158;-69
2023/08/01 05:43:12;;;;;;;5.28;2.35;;;;;;;;;;5114034;28;20407;-71
2023/08/01 05:45:38;;;;;;;4.05;2.17;;;;;;;;;;5113596;28;20601;-69
2023/08/01 05:48:05;;;;;;;6.35;2.60;;;;;;;;;;5113668;28;20499;-70
2023/08/01 05:50:32;;;;;;;5.45;2.53;;;;;;;;;;5113306;28;20127;-72
2023/08/01 05:52:59;;;;;;;4.72;2.10;;;;;;;;;;5113587;28;20059;-72
2023/08/01 05:55:25;;;;;;;4.63;2.40;;;;;;;;;;5113490;28;20073;-70
2023/08/01 05:57:52;;;;;;;9.90;2.20;;;;;;;;;;5113791;28;20135;-69
2023/08/01 06:00:21;;;;;;;5.38;2.30;;;;;;;;;;5113087;28;20530;-69
2023/08/01 06:02:48;;;;;;;4.18;2.35;;;;;;;;;;5113511;28;20046;-71
2023/08/01 06:05:15;;;;;;;8.32;2.40;;;;;;;;;;5113439;28;20055;-70
2023/08/01 06:07:42;;;;;;;7.18;2.22;;;;;;;;;;5113219;28;20463;-70
2023/08/01 06:10:09;;;;;;;3.63;2.17;;;;;;;;;;5112959;28;20044;-69
2023/08/01 06:12:36;;;;;;;5.15;2.40;;;;;;;;;;5113362;28;20051;-69
2023/08/01 06:15:03;;;;;;;5.70;2.58;;;;;;;;;;5113339;28;20055;-69
2023/08/01 06:17:30;;;;;;;7.00;2.60;;;;;;;;;;5112966;28;20054;-74
2023/08/01 06:19:57;;;;;;;5.15;2.47;;;;;;;;;;5113112;28;20047;-71
2023/08/01 06:22:24;;;;;;;4.57;2.50;;;;;;;;;;5112991;28;20048;-73
2023/08/01 06:24:50;;;;;;;4.20;2.13;;;;;;;;;;5112922;28;20050;-71
2023/08/01 06:27:17;;;;;;;4.70;2.28;;;;;;;;;;5113080;28;20043;-69
2023/08/01 06:29:44;;;;;;;4.15;2.17;;;;;;;;;;5112881;28;20055;-70
2023/08/01 06:32:11;;;;;;;6.10;2.25;;;;;;;;;;5112344;28;20100;-71
2023/08/01 06:34:38;;;;;;;6.40;2.47;;;;;;;;;;5112672;28;20050;-72
2023/08/01 06:37:05;;;;;;;4.10;2.30;;;;;;;;;;5112555;28;20535;-70
2023/08/01 06:39:31;;;;;;;4.03;2.00;;;;;;;;;;5112188;28;20048;-72
2023/08/01 06:41:58;;;;;;;5.53;2.28;;;;;;;;;;5112434;28;20435;-70
2023/08/01 06:44:25;;;;;;;4.22;2.28;;;;;;;;;;5112560;28;20119;-71
2023/08/01 06:46:51;;;;;;;5.15;2.58;;;;;;;;;;5112826;28;20036;-73
2023/08/01 06:49:18;;;;;;;4.25;1.83;;;;;;;;;;5112528;28;20126;-71
2023/08/01 06:51:45;;;;;;;4.40;1.90;;;;;;;;;;5112299;28;20043;-70
2023/08/01 06:54:11;;;;;;;5.10;1.95;;;;;;;;;;5111950;28;20056;-69
2023/08/01 06:56:38;;;;;;;5.25;2.40;;;;;;;;;;5112244;28;20043;-70
2023/08/01 06:59:05;;;;;;;5.90;2.10;;;;;;;;;;5112312;28;20044;-73
2023/08/01 07:01:32;;;;;;;5.55;2.38;;;;;;;;;;5111836;28;20047;-69
2023/08/01 07:03:59;;;;;;;5.90;2.13;;;;;;;;;;5112337;28;20151;-74
2023/08/01 07:06:26;;;;;;;6.57;2.05;;;;;;;;;;5112022;28;20648;-70
2023/08/01 07:08:53;;;;;;;3.45;2.15;;;;;;;;;;5112217;28;20043;-70
2023/08/01 07:11:19;;;;;;;7.70;1.88;;;;;;;;;;5111547;28;20046;-70
2023/08/01 07:13:46;;;;;;;6.57;1.85;;;;;;;;;;5112067;28;20127;-71
2023/08/01 07:16:13;;;;;;;4.05;1.90;;;;;;;;;;5111793;28;20050;-69
2023/08/01 07:18:39;;;;;;;3.60;1.83;;;;;;;;;;5112026;28;20046;-73
2023/08/01 07:21:06;;;;;;;5.47;1.95;;;;;;;;;;5111647;28;20051;-75
2023/08/01 07:23:34;;;;;;;4.13;1.98;;;;;;;;;;5111779;28;20047;-71
2023/08/01 07:26:01;;;;;;;7.47;1.83;;;;;;;;;;5111818;28;20040;-72
2023/08/01 07:28:27;;;;;;;4.97;2.20;;;;;;;;;;5111790;28;20047;-69
2023/08/01 07:31:04;;;;;;;3.33;2.03;;;;;;;;;;5111316;28;20071;-70
2023/08/01 07:33:32;;;;;;;3.88;1.90;;;;;;;;;;5111387;28;20414;-76
2023/08/01 07:35:58;;;;;;;2.78;1.70;;;;;;;;;;5111613;28;20047;-76
2023/08/01 07:38:26;;;;;;;2.90;1.70;;;;;;;;;;5111379;28;20050;-69
2023/08/01 07:40:55;;;;;;;3.97;1.75;;;;;;;;;;5111349;28;20051;-71
2023/08/01 07:43:23;;;;;;;5.60;2.17;;;;;;;;;;5111438;28;20580;-69
2023/08/01 07:45:54;;;;;;;5.57;2.10;;;;;;;;;;5111495;28;20043;-70
2023/08/01 07:48:21;;;;;;;5.03;1.85;;;;;;;;;;5111638;28;20050;-70
2023/08/01 07:50:48;;;;;;;3.95;1.77;;;;;;;;;;5111145;28;20047;-69
2023/08/01 07:53:14;;;;;;;3.45;1.75;;;;;;;;;;5111433;28;20040;-70
2023/08/01 07:55:41;;;;;;;3.20;1.77;;;;;;;;;;5111414;28;20130;-69
2023/08/01 07:58:08;;;;;;;3.95;1.83;;;;;;;;;;5111260;28;20044;-70
2023/08/01 08:00:35;;;;;;;4.22;1.88;;;;;;;;;;5111186;28;20051;-70
2023/08/01 08:03:02;;;;;;;5.40;1.80;;;;;;;;;;5111386;28;20130;-70
2023/08/01 08:05:29;;;;;;;4.30;1.70;;;;;;;;;;5110931;28;20044;-70
2023/08/01 08:07:55;;;;;;;3.40;1.63;;;;;;;;;;5111152;28;20050;-69
2023/08/01 08:10:22;;;;;;;4.78;2.20;;;;;;;;;;5110709;28;20051;-69
2023/08/01 08:12:49;;;;;;;4.95;1.60;;;;;;;;;;5110662;28;20056;-75
2023/08/01 08:15:17;;;;;;;4.32;1.75;;;;;;;;;;5110964;28;20043;-69
2023/08/01 08:17:44;;;;;;;4.22;1.67;;;;;;;;;;5111147;28;20047;-70
2023/08/01 08:20:10;;;;;;;5.78;1.92;;;;;;;;;;5111011;28;20093;-70
2023/08/01 08:22:37;;;;;;;2.80;1.65;;;;;;;;;;5111118;28;20040;-70
2023/08/01 08:25:04;;;;;;;7.25;2.05;;;;;;;;;;5111081;28;20051;-70
2023/08/01 08:27:31;;;;;;;3.85;1.42;;;;;;;;;;5110723;28;20046;-70
2023/08/01 08:29:57;;;;;;;3.97;1.70;;;;;;;;;;5110930;28;20075;-69
2023/08/01 08:32:24;;;;;;;3.13;1.58;;;;;;;;;;5110089;28;20458;-70
2023/08/01 08:34:51;;;;;;;2.90;1.60;;;;;;;;;;5110508;28;20040;-69
2023/08/01 08:37:17;;;;;;;3.63;1.60;;;;;;;;;;5110251;28;20044;-75
2023/08/01 08:39:44;;;;;;;4.50;2.10;;;;;;;;;;5110934;28;20049;-70
2023/08/01 08:42:11;;;;;;;4.55;1.70;;;;;;;;;;5110471;28;20044;-69
2023/08/01 08:44:43;;;;;;;7.90;1.50;;;;;;;;;;5110787;28;20087;-70
2023/08/01 08:47:12;;;;;;;3.45;1.48;;;;;;;;;;5110344;28;20047;-73
2023/08/01 08:49:40;;;;;;;3.15;1.60;;;;;;;;;;5109698;28;20052;-71
2023/08/01 08:52:09;;;;;;;2.83;1.40;;;;;;;;;;5109720;28;20124;-70
2023/08/01 08:54:36;;;;;;;5.65;2.00;;;;;;;;;;5110645;28;20052;-73
2023/08/01 08:57:06;;;;;;;4.90;1.67;;;;;;;;;;5110175;28;20044;-70
2023/08/01 08:59:33;;;;;;;5.07;1.80;;;;;;;;;;5110620;28;20067;-71
2023/08/01 09:02:03;;;;;;;2.47;1.40;;;;;;;;;;5109820;28;20051;-69
2023/08/01 09:04:31;;;;;;;3.38;1.70;;;;;;;;;;5110211;28;20420;-69
2023/08/01 09:07:02;;;;;;;4.22;1.50;;;;;;;;;;5110216;28;20071;-70
2023/08/01 09:09:29;;;;;;;3.13;1.40;;;;;;;;;;5109971;28;20040;-73
2023/08/01 09:11:56;;;;;;;4.18;1.45;;;;;;;;;;5109816;28;20055;-72
2023/08/01 09:14:23;;;;;;;6.63;1.48;;;;;;;;;;5110029;28;20044;-69
2023/08/01 09:16:49;;;;;;;3.92;1.50;;;;;;;;;;5109986;28;20047;-70
2023/08/01 09:19:19;;;;;;;5.53;1.45;;;;;;;;;;5110239;28;20055;-70
2023/08/01 09:21:47;;;;;;;3.90;1.27;;;;;;;;;;5110252;28;20067;-72
2023/08/01 09:24:18;;;;;;;3.40;1.35;;;;;;;;;;5109883;28;20407;-70
2023/08/01 09:26:47;;;;;;;3.35;1.55;;;;;;;;;;5109916;28;20047;-70
2023/08/01 09:29:16;;;;;;;4.85;1.30;;;;;;;;;;5110017;28;20050;-69
2023/08/01 09:31:43;;;;;;;2.40;1.40;;;;;;;;;;5109739;28;20135;-71
2023/08/01 09:34:20;;;;;;;2.58;1.40;;;;;;;;;;5110470;28;20142;-72
2023/08/01 09:36:47;;;;;;;2.15;1.20;;;;;;;;;;5109806;28;20052;-72
2023/08/01 09:39:21;;;;;;;6.85;1.40;;;;;;;;;;5110311;28;20052;-69
2023/08/01 09:41:58;;;;;;;7.50;1.50;;;;;;;;;;5109791;28;20507;-71
2023/08/01 09:44:29;;;;;;;3.10;1.15;;;;;;;;;;5109753;28;20135;-70
2023/08/01 09:47:00;;;;;;;2.75;1.02;;;;;;;;;;5109693;28;20097;-70
2023/08/01 09:49:28;;;;;;;1.83;0.98;;;;;;;;;;5110040;28;20043;-71
2023/08/01 09:51:55;;;;;;;2.88;1.10;;;;;;;;;;5109503;28;20128;-69
2023/08/01 09:54:22;;;;;;;2.22;1.00;;;;;;;;;;5109671;28;20558;-70
2023/08/01 09:56:52;;;;;;;3.33;1.20;;;;;;;;;;5091886;28;20046;-69
2023/08/01 09:59:19;;;;;;;;;;;;;;;;;;5110535;28;20066;-73
2023/08/01 10:01:50;;;;;;;2.78;0.90;;;;;;;;;;5111419;28;20354;-70
2023/08/01 10:04:20;;;;;;;2.25;1.02;;;;;;;;;;5113617;28;20050;-73
2023/08/01 10:06:52;;;;;;;1.42;1.00;;;;;;;;;;5113412;28;20172;-75
2023/08/01 10:09:19;;;;;;;3.92;1.20;;;;;;;;;;5113259;28;20044;-69
2023/08/01 10:11:47;;;;;;;1.98;1.20;;;;;;;;;;5113066;28;20051;-70
2023/08/01 10:14:15;;;;;;;1.45;0.85;;;;;;;;;;5113279;28;20629;-76
2023/08/01 10:16:43;;;;;;;3.65;1.35;;;;;;;;;;5113429;28;20139;-77
2023/08/01 10:19:11;;;;;;;1.92;0.90;;;;;;;;;;5113394;28;20047;-77
2023/08/01 10:21:39;;;;;;;1.63;0.98;;;;;;;;;;5113116;28;20048;-71
2023/08/01 10:24:07;;;;;;;1.73;1.00;;;;;;;;;;5112993;28;20056;-70
2023/08/01 10:26:34;;;;;;;2.33;1.10;;;;;;;;;;5113193;28;20070;-72
2023/08/01 10:29:02;;;;;;;2.17;1.10;;;;;;;;;;5113133;28;20055;-69
2023/08/01 10:31:28;;;;;;;3.83;0.90;;;;;;;;;;5112821;28;20074;-71
2023/08/01 10:34:07;;;;;;;4.50;1.20;;;;;;;;;;5112825;28;20083;-69
2023/08/01 10:36:34;;;;;;;2.28;1.00;;;;;;;;;;5113140;28;20047;-69
2023/08/01 10:39:02;;;;;;;3.22;1.08;;;;;;;;;;5112614;28;20104;-69
2023/08/01 10:41:33;;;;;;;2.88;1.20;;;;;;;;;;5112781;28;20040;-72
2023/08/01 10:44:12;;;;;;;2.90;0.80;;;;;;;;;;5112106;28;20059;-72
2023/08/01 10:47:05;;;;;;;1.55;1.02;;;;;;;;;;5112629;28;20092;-70
2023/08/01 10:49:39;;;;;;;3.80;0.90;;;;;;;;;;5110073;28;20054;-70
2023/08/01 10:52:27;;;;;;;2.83;1.10;;;;;;;;;;5112404;28;20047;-73
2023/08/01 10:55:05;;;;;;;5.00;1.25;;;;;;;;;;5112706;28;20135;-70
2023/08/01 10:57:35;;;;;;;3.90;1.00;;;;;;;;;;5094803;28;20441;-71
2023/08/01 11:00:05;;;;;;;2.97;1.30;;;;;;;;;;5112465;28;20047;-70
2023/08/01 11:02:31;;;;;;;3.25;1.17;;;;;;;;;;5111779;28;20040;-69
2023/08/01 11:05:04;;;;;;;3.50;1.80;;;;;;;;;;5112452;28;20047;-73
2023/08/01 11:07:32;;;;;;;2.00;0.90;;;;;;;;;;5112247;28;20048;-72
2023/08/01 11:10:06;;;;;;;3.90;0.95;;;;;;;;;;5112146;27;20495;-72
2023/08/01 11:12:37;;;;;;;3.17;1.17;;;;;;;;;;5111012;28;20514;-73
2023/08/01 11:15:09;;;;;;;3.28;0.98;;;;;;;;;;5111852;28;20050;-69
2023/08/01 11:17:37;;;;;;;2.83;0.80;;;;;;;;;;5111804;28;20044;-69
2023/08/01 11:20:07;;;;;;;1.85;0.70;;;;;;;;;;5112246;28;20039;-71
2023/08/01 11:22:34;;;;;;;1.20;0.77;;;;;;;;;;5111669;28;20040;-71
2023/08/01 11:25:02;;;;;;;1.48;0.68;;;;;;;;;;5111987;28;20542;-69
2023/08/01 11:27:29;;;;;;;2.83;0.75;;;;;;;;;;5111625;28;20047;-69
2023/08/01 11:29:56;;;;;;;3.33;0.85;;;;;;;;;;5112199;28;20047;-69
2023/08/01 11:32:37;;;;;;;1.65;0.77;;;;;;;;;;5111409;28;20533;-73
2023/08/01 11:35:04;;;;;;;1.02;0.70;;;;;;;;;;5111811;28;20495;-70
2023/08/01 11:37:32;;;;;;;1.42;0.85;;;;;;;;;;5111296;28;20050;-72
2023/08/01 11:39:59;;;;;;;1.30;0.75;;;;;;;;;;5111579;28;20403;-70
2023/08/01 11:42:32;;;;;;;2.75;1.00;;;;;;;;;;5111539;28;20054;-69
2023/08/01 11:45:11;;;;;;;1.88;1.00;;;;;;;;;;5111594;28;20108;-72
2023/08/01 11:47:46;;;;;;;1.57;1.00;;;;;;;;;;5111647;28;20089;-73
2023/08/01 11:50:13;;;;;;;1.40;0.85;;;;;;;;;;5111500;28;20066;-69
2023/08/01 11:52:40;;;;;;;1.45;1.00;;;;;;;;;;5111153;28;20044;-71
2023/08/01 11:55:08;;;;;;;1.83;0.98;;;;;;;;;;5111556;28;20043;-75
2023/08/01 11:57:34;;;;;;;1.85;1.00;;;;;;;;;;5111390;28;20044;-70
2023/08/01 12:00:01;;;;;;;2.45;1.05;;;;;;;;;;5111315;28;20047;-70
2023/08/01 12:02:31;;;;;;;3.40;1.13;;;;;;;;;;5111504;28;20048;-75
2023/08/01 12:04:58;;;;;;;1.60;1.00;;;;;;;;;;5111200;28;20055;-71
2023/08/01 12:07:25;;;;;;;5.72;1.40;;;;;;;;;;5111162;28;20572;-72
2023/08/01 12:09:57;;;;;;;2.13;0.93;;;;;;;;;;5111323;28;20047;-69
2023/08/01 12:12:26;;;;;;;2.55;1.10;;;;;;;;;;5111085;28;20484;-69
2023/08/01 12:14:53;;;;;;;2.10;1.00;;;;;;;;;;5110721;28;20122;-72
2023/08/01 12:17:20;;;;;;;2.08;1.00;;;;;;;;;;5092959;28;20050;-69
2023/08/01 12:19:47;;;;;;;2.40;0.90;;;;;;;;;;5110704;28;20519;-72
2023/08/01 12:22:14;;;;;;;3.17;1.15;;;;;;;;;;5110986;28;20051;-68
2023/08/01 12:24:41;;;;;;;1.48;0.90;;;;;;;;;;5110577;28;20126;-70
2023/08/01 12:27:08;;;;;;;1.83;0.90;;;;;;;;;;5110726;28;20096;-71
2023/08/01 12:29:35;;;;;;;1.08;0.65;;;;;;;;;;5110660;28;20043;-71
2023/08/01 12:32:03;;;;;;;1.48;0.65;;;;;;;;;;5110538;28;20080;-70
2023/08/01 12:34:29;;;;;;;1.40;0.80;;;;;;;;;;5110268;28;20048;-73
2023/08/01 12:36:56;;;;;;;1.65;0.85;;;;;;;;;;5110734;28;20048;-75
2023/08/01 12:39:25;;;;;;;1.17;0.80;;;;;;;;;;5110394;28;20055;-69
2023/08/01 12:41:53;;;;;;;1.65;1.00;;;;;;;;;;5110840;28;20070;-70
2023/08/01 12:44:21;;;;;;;3.83;0.90;;;;;;;;;;5110277;28;20527;-70
2023/08/01 12:46:47;;;;;;;3.88;1.00;;;;;;;;;;5110583;28;20528;-70
2023/08/01 12:49:14;;;;;;;1.70;0.90;;;;;;;;;;5110448;28;20051;-70
2023/08/01 12:51:41;;;;;;;2.70;0.70;;;;;;;;;;5110385;28;20507;-69
2023/08/01 12:54:08;;;;;;;1.50;0.68;;;;;;;;;;5109989;28;20059;-70
2023/08/01 12:56:34;;;;;;;1.38;0.82;;;;;;;;;;5110352;28;20051;-69
2023/08/01 12:59:01;;;;;;;0.77;0.52;;;;;;;;;;5110057;28;20485;-68
2023/08/01 13:01:28;;;;;;;0.85;0.70;;;;;;;;;;5110385;28;20051;-71
2023/08/01 13:03:54;;;;;;;0.73;0.50;;;;;;;;;;5109853;28;20527;-69
2023/08/01 13:06:21;;;;;;;0.82;0.60;;;;;;;;;;5110278;28;20048;-69
2023/08/01 13:08:48;;;;;;;0.32;0.32;;;;;;;;;;5110129;28;20055;-69
2023/08/01 13:11:15;;;;;;;0.57;0.30;;;;;;;;;;5110182;28;20469;-73
2023/08/01 13:13:41;;;;;;;0.35;0.20;;;;;;;;;;5109918;28;20039;-70
2023/08/01 13:16:08;;;;;;;0.70;0.20;;;;;;;;;;5110345;28;20087;-69
2023/08/01 13:18:35;;;;;;;0.40;0.28;;;;;;;;;;5110235;28;20074;-71
2023/08/01 13:21:03;;;;;;;1.40;0.40;;;;;;;;;;5110530;28;20051;-70
2023/08/01 13:23:30;;;;;;;0.50;0.50;;;;;;;;;;5109895;28;20043;-69
2023/08/01 13:25:58;;;;;;;0.70;0.52;;;;;;;;;;5109868;28;20518;-69
2023/08/01 13:28:25;;;;;;;1.27;0.70;;;;;;;;;;5110249;28;20044;-72
2023/08/01 13:30:51;;;;;;;0.43;0.40;;;;;;;;;;5109924;28;20057;-69
2023/08/01 13:33:18;;;;;;;0.90;0.63;;;;;;;;;;5110101;28;20043;-70
2023/08/01 13:35:45;;;;;;;1.05;0.75;;;;;;;;;;5110056;28;20055;-72
2023/08/01 13:38:13;;;;;;;1.42;0.70;;;;;;;;;;5113971;28;20467;-70
2023/08/01 13:40:40;;;;;;;1.83;0.80;;;;;;;;;;5114256;28;20090;-70
2023/08/01 13:43:06;;;;;;;1.08;0.70;;;;;;;;;;5114585;28;20047;-70
2023/08/01 13:45:34;;;;;;;1.35;0.68;;;;;;;;;;5113861;28;20070;-72
2023/08/01 13:48:01;;;;;;;2.15;0.68;;;;;;;;;;5113832;28;20092;-70
2023/08/01 13:50:29;;;;;;;1.00;0.70;;;;;;;;;;5113823;28;20043;-69
2023/08/01 13:52:55;;;;;;;1.63;0.68;;;;;;;;;;5113919;28;20055;-72
2023/08/01 13:55:22;;;;;;;0.57;0.40;;;;;;;;;;5113490;28;20069;-71
2023/08/01 13:57:49;;;;;;;0.57;0.52;;;;;;;;;;5113719;28;20047;-70
2023/08/01 14:00:15;;;;;;;0.70;0.40;;;;;;;;;;5113563;28;20377;-69
2023/08/01 14:02:42;;;;;;;1.20;0.45;;;;;;;;;;5114198;28;20039;-69
2023/08/01 14:05:09;;;;;;;0.88;0.45;;;;;;;;;;5113038;28;20491;-69
2023/08/01 14:07:39;;;;;;;0.75;0.50;;;;;;;;;;5113352;28;20092;-69
2023/08/01 14:10:10;;;;;;;1.85;0.60;;;;;;;;;;5113176;28;20711;-73
2023/08/01 14:12:36;;;;;;;1.27;0.70;;;;;;;;;;5113385;28;20131;-71
2023/08/01 14:15:04;;;;;;;1.95;0.80;;;;;;;;;;5113163;28;20083;-69
2023/08/01 14:17:31;;;;;;;3.03;1.00;;;;;;;;;;5113678;28;20040;-70
2023/08/01 14:19:58;;;;;;;1.08;0.70;;;;;;;;;;5113066;28;20051;-70
2023/08/01 14:22:25;;;;;;;2.33;1.00;;;;;;;;;;5113260;28;20492;-72
2023/08/01 14:24:52;;;;;;;2.00;1.13;;;;;;;;;;5112574;28;20054;-72
2023/08/01 14:27:19;;;;;;;1.67;0.85;;;;;;;;;;5113211;28;20047;-70
2023/08/01 14:29:45;;;;;;;1.67;0.98;;;;;;;;;;5113005;28;20043;-75
2023/08/01 14:32:12;;;;;;;1.58;1.00;;;;;;;;;;5112796;28;20056;-70
2023/08/01 14:34:39;;;;;;;5.18;2.00;;;;;;;;;;5112631;28;20059;-70
2023/08/01 14:37:05;;;;;;;2.33;1.10;;;;;;;;;;5112911;28;20077;-69
2023/08/01 14:39:32;;;;;;;1.83;1.17;;;;;;;;;;5112867;28;20048;-70
2023/08/01 14:41:59;;;;;;;1.63;1.10;;;;;;;;;;5113042;28;20043;-70
2023/08/01 14:44:28;;;;;;;2.40;1.00;;;;;;;;;;5112365;28;20468;-70